createdAt,value
2022-09-14T00:01:27.134Z,62.19
2022-09-14T00:03:56.767Z,61.51
2022-09-14T00:06:24.110Z,63.31
2022-09-14T00:08:52.810Z,63.33
2022-09-14T00:11:21.638Z,63.40
2022-09-14T00:13:49.394Z,62.92
2022-09-14T00:16:29.478Z,62.91
2022-09-14T00:19:06.378Z,63.70
2022-09-14T00:21:36.191Z,62.33
2022-09-14T00:24:05.288Z,62.50
2022-09-14T00:26:32.992Z,63.31
2022-09-14T00:29:04.532Z,62.28
2022-09-14T00:31:35.419Z,62.85
2022-09-14T00:34:03.349Z,62.02
2022-09-14T00:36:31.492Z,63.15
2022-09-14T00:39:00.816Z,63.75
2022-09-14T00:41:34.332Z,65.10
2022-09-14T00:44:07.301Z,63.66
2022-09-14T00:46:38.416Z,63.95
2022-09-14T00:49:13.364Z,62.44
2022-09-14T00:51:43.916Z,63.54
2022-09-14T00:54:11.600Z,62.83
2022-09-14T00:56:38.937Z,62.98
2022-09-14T00:59:12.647Z,63.73
2022-09-14T01:01:40.460Z,63.42
2022-09-14T01:04:07.848Z,64.53
2022-09-14T01:06:40.455Z,64.21
2022-09-14T01:09:26.722Z,65.32
2022-09-14T01:12:24.702Z,64.39
2022-09-14T01:15:01.589Z,63.46
2022-09-14T01:17:34.451Z,63.29
2022-09-14T01:20:20.567Z,65.15
2022-09-14T01:23:05.908Z,64.38
2022-09-14T01:25:47.821Z,64.00
2022-09-14T01:28:24.022Z,63.31
2022-09-14T01:30:53.786Z,64.95
2022-09-14T01:33:25.536Z,66.18
2022-09-14T01:35:55.667Z,64.77
2022-09-14T01:38:36.202Z,64.38
2022-09-14T01:41:07.465Z,63.76
2022-09-14T01:43:38.569Z,64.65
2022-09-14T01:46:29.822Z,65.62
2022-09-14T01:49:04.290Z,65.23
2022-09-14T01:51:34.054Z,65.31
2022-09-14T01:54:08.041Z,64.13
2022-09-14T01:56:39.692Z,64.62
2022-09-14T01:59:14.239Z,65.60
2022-09-14T02:01:51.344Z,64.70
2022-09-14T02:04:26.585Z,64.40
2022-09-14T02:06:54.101Z,64.70
2022-09-14T02:09:26.457Z,64.30
2022-09-14T02:11:55.406Z,65.85
2022-09-14T02:14:23.136Z,66.50
2022-09-14T02:16:50.449Z,67.00
2022-09-14T02:19:23.086Z,68.14
2022-09-14T02:21:51.442Z,67.43
2022-09-14T02:24:18.916Z,65.09
2022-09-14T02:26:48.670Z,65.93
2022-09-14T02:29:16.285Z,66.26
2022-09-14T02:31:57.258Z,65.95
2022-09-14T02:34:36.492Z,66.98
2022-09-14T02:37:10.331Z,65.65
2022-09-14T02:39:56.748Z,65.03
2022-09-14T02:42:48.884Z,65.15
2022-09-14T02:45:20.726Z,66.21
2022-09-14T02:48:02.467Z,67.15
2022-09-14T02:51:08.530Z,66.92
2022-09-14T02:53:49.865Z,66.93
2022-09-14T02:56:18.839Z,67.46
2022-09-14T02:58:46.714Z,67.59
2022-09-14T03:01:17.780Z,67.34
2022-09-14T03:03:45.414Z,68.26
2022-09-14T03:06:13.237Z,66.49
2022-09-14T03:08:40.687Z,67.03
2022-09-14T03:11:08.265Z,67.29
2022-09-14T03:13:36.459Z,66.78
2022-09-14T03:16:06.829Z,68.24
2022-09-14T03:18:35.192Z,67.51
2022-09-14T03:21:13.460Z,67.22
2022-09-14T03:23:47.367Z,66.48
2022-09-14T03:26:19.949Z,67.94
2022-09-14T03:28:55.458Z,65.47
2022-09-14T03:31:23.250Z,66.02
2022-09-14T03:33:56.463Z,66.01
2022-09-14T03:36:24.901Z,65.73
2022-09-14T03:38:53.872Z,67.36
2022-09-14T03:41:22.461Z,67.51
2022-09-14T03:43:50.142Z,66.78
2022-09-14T03:46:23.174Z,66.20
2022-09-14T03:48:51.309Z,66.35
2022-09-14T03:51:18.942Z,67.30
2022-09-14T03:53:46.621Z,65.54
2022-09-14T03:56:17.617Z,64.85
2022-09-14T03:58:46.889Z,65.05
2022-09-14T04:01:16.983Z,65.51
2022-09-14T04:03:45.261Z,66.87
2022-09-14T04:06:12.874Z,66.79
2022-09-14T04:08:41.347Z,67.13
2022-09-14T04:11:20.509Z,66.33
2022-09-14T04:13:48.462Z,66.11
2022-09-14T04:16:17.184Z,66.34
2022-09-14T04:18:45.149Z,66.05
2022-09-14T04:21:20.984Z,66.92
2022-09-14T04:24:13.379Z,66.82
2022-09-14T04:26:36.192Z,67.22
2022-09-14T04:29:03.761Z,65.71
2022-09-14T04:31:31.668Z,68.48
2022-09-14T04:33:59.026Z,69.12
2022-09-14T04:36:31.320Z,68.83
2022-09-14T04:39:00.577Z,66.79
2022-09-14T04:41:29.400Z,66.53
2022-09-14T04:43:57.206Z,65.89
2022-09-14T04:46:30.418Z,68.40
2022-09-14T04:48:58.409Z,68.08
2022-09-14T04:51:29.022Z,68.07
2022-09-14T04:53:59.136Z,67.00
2022-09-14T04:56:27.559Z,65.64
2022-09-14T04:58:58.495Z,67.93
2022-09-14T05:01:37.115Z,70.05
2022-09-14T05:04:06.342Z,70.01
2022-09-14T05:06:35.168Z,71.16
2022-09-14T05:09:04.913Z,71.72
2022-09-14T05:11:34.155Z,68.23
2022-09-14T05:14:02.033Z,67.60
2022-09-14T05:16:30.722Z,66.25
2022-09-14T05:19:02.039Z,67.12
2022-09-14T05:21:31.686Z,66.75
2022-09-14T05:24:01.779Z,67.96
2022-09-14T05:26:30.917Z,68.37
2022-09-14T05:29:00.532Z,67.86
2022-09-14T05:31:28.852Z,67.91
2022-09-14T05:33:56.244Z,67.61
2022-09-14T05:36:24.784Z,68.29
2022-09-14T05:38:52.138Z,67.77
2022-09-14T05:41:19.566Z,65.75
2022-09-14T05:43:47.242Z,66.27
2022-09-14T05:46:16.682Z,68.19
2022-09-14T05:48:44.114Z,66.85
2022-09-14T05:51:16.810Z,64.62
2022-09-14T05:53:49.251Z,64.62
2022-09-14T05:56:17.841Z,63.56
2022-09-14T05:58:45.605Z,65.31
2022-09-14T06:01:14.123Z,64.16
2022-09-14T06:03:42.703Z,64.87
2022-09-14T06:06:11.335Z,64.07
2022-09-14T06:08:39.174Z,62.81
2022-09-14T06:11:09.719Z,63.60
2022-09-14T06:13:37.486Z,60.74
2022-09-14T06:16:10.068Z,62.71
2022-09-14T06:18:39.123Z,65.20
2022-09-14T06:21:08.405Z,66.53
2022-09-14T06:23:36.007Z,65.20
2022-09-14T06:26:05.102Z,64.66
2022-09-14T06:28:33.561Z,65.09
2022-09-14T06:31:01.265Z,63.92
2022-09-14T06:33:28.843Z,64.63
2022-09-14T06:36:00.202Z,63.27
2022-09-14T06:38:28.487Z,62.38
2022-09-14T06:40:57.107Z,62.20
2022-09-14T06:43:25.639Z,64.05
2022-09-14T06:46:23.586Z,64.81
2022-09-14T06:48:57.958Z,64.36
2022-09-14T06:51:36.475Z,62.43
2022-09-14T06:54:04.611Z,62.12
2022-09-14T06:56:35.801Z,62.43
2022-09-14T06:59:04.311Z,64.63
2022-09-14T07:01:31.912Z,62.40
2022-09-14T07:04:01.141Z,62.45
2022-09-14T07:06:30.454Z,65.08
2022-09-14T07:08:58.439Z,65.81
2022-09-14T07:11:27.542Z,67.15
2022-09-14T07:13:57.244Z,66.81
2022-09-14T07:16:29.545Z,66.77
2022-09-14T07:18:58.366Z,66.69
2022-09-14T07:21:26.664Z,67.30
2022-09-14T07:23:55.621Z,66.89
2022-09-14T07:26:24.193Z,67.46
2022-09-14T07:28:55.538Z,66.68
2022-09-14T07:31:29.984Z,66.72
2022-09-14T07:34:00.141Z,67.12
2022-09-14T07:36:33.966Z,66.73
2022-09-14T07:39:06.393Z,65.16
2022-09-14T07:41:34.446Z,67.56
2022-09-14T07:44:04.342Z,67.10
2022-09-14T07:46:33.335Z,66.88
2022-09-14T07:49:02.184Z,67.46
2022-09-14T07:51:30.840Z,71.08
2022-09-14T07:54:00.763Z,71.30
2022-09-14T07:56:28.647Z,72.57
2022-09-14T07:59:17.239Z,71.41
2022-09-14T08:01:46.981Z,71.04
2022-09-14T08:04:14.319Z,73.11
2022-09-14T08:06:42.123Z,73.58
2022-09-14T08:09:09.314Z,73.65
2022-09-14T08:11:38.254Z,73.20
2022-09-14T08:14:11.479Z,70.65
2022-09-14T08:16:39.241Z,68.58
2022-09-14T08:19:18.309Z,70.33
2022-09-14T08:21:47.817Z,70.24
2022-09-14T08:24:20.199Z,71.34
2022-09-14T08:26:48.499Z,71.17
2022-09-14T08:29:17.149Z,69.92
2022-09-14T08:31:45.756Z,69.59
2022-09-14T08:34:15.106Z,69.95
2022-09-14T08:36:42.980Z,69.38
2022-09-14T08:39:12.041Z,69.66
2022-09-14T08:41:52.516Z,71.04
2022-09-14T08:44:53.296Z,69.74
2022-09-14T08:47:29.609Z,69.46
2022-09-14T08:50:23.136Z,68.43
2022-09-14T08:52:53.274Z,68.62
2022-09-14T08:55:20.541Z,67.86
2022-09-14T08:57:55.530Z,69.79
2022-09-14T09:00:25.176Z,67.79
2022-09-14T09:03:14.317Z,66.54
2022-09-14T09:05:47.693Z,65.42
2022-09-14T09:08:20.038Z,63.29
2022-09-14T09:10:48.412Z,64.50
2022-09-14T09:13:21.724Z,64.60
2022-09-14T09:15:54.630Z,63.24
2022-09-14T09:18:48.022Z,61.95
2022-09-14T09:21:17.570Z,60.00
2022-09-14T09:23:45.159Z,62.31
2022-09-14T09:26:32.546Z,62.28
2022-09-14T09:29:01.791Z,61.44
2022-09-14T09:31:45.336Z,61.68
2022-09-14T09:34:16.297Z,63.19
2022-09-14T09:36:48.606Z,62.75
2022-09-14T09:39:16.804Z,61.88
2022-09-14T09:41:48.211Z,58.53
2022-09-14T09:44:16.261Z,57.60
2022-09-14T09:49:19.548Z,61.97
2022-09-14T09:51:47.030Z,60.60
2022-09-14T09:54:14.344Z,58.54
2022-09-14T09:56:58.022Z,60.53
2022-09-14T09:59:40.986Z,62.82
2022-09-14T10:02:20.517Z,62.75
2022-09-14T10:05:09.742Z,60.84
2022-09-14T10:07:58.573Z,59.79
2022-09-14T10:10:46.677Z,59.58
2022-09-14T10:13:38.188Z,60.86
2022-09-14T10:16:16.246Z,61.32
2022-09-14T10:18:49.445Z,61.98
2022-09-14T10:21:18.597Z,59.54
2022-09-14T10:23:46.335Z,61.06
2022-09-14T10:26:13.535Z,60.58
2022-09-14T10:28:43.187Z,60.13
2022-09-14T10:31:19.978Z,61.95
2022-09-14T10:33:53.719Z,61.51
2022-09-14T10:36:31.259Z,61.08
2022-09-14T10:39:14.254Z,59.00
2022-09-14T10:41:51.669Z,56.86
2022-09-14T10:44:41.349Z,57.06
2022-09-14T10:47:11.641Z,56.69
2022-09-14T10:50:21.210Z,57.02
2022-09-14T10:53:11.650Z,56.82
2022-09-14T10:56:01.180Z,59.32
2022-09-14T10:59:02.695Z,61.48
2022-09-14T11:01:36.205Z,59.77
2022-09-14T11:04:52.482Z,59.42
2022-09-14T11:07:36.726Z,59.89
2022-09-14T11:10:19.302Z,58.63
2022-09-14T11:13:42.641Z,59.96
2022-09-14T11:16:47.751Z,59.08
2022-09-14T11:19:18.160Z,57.99
2022-09-14T11:21:57.348Z,57.33
2022-09-14T11:24:54.801Z,56.82
2022-09-14T11:27:37.307Z,56.91
2022-09-14T11:30:06.327Z,56.04
2022-09-14T11:32:46.835Z,56.68
2022-09-14T11:35:21.808Z,59.32
2022-09-14T11:38:00.838Z,58.93
2022-09-14T11:40:44.682Z,59.05
2022-09-14T11:43:53.743Z,60.44
2022-09-14T11:46:27.548Z,59.31
2022-09-14T11:48:57.535Z,59.70
2022-09-14T11:51:37.285Z,60.63
2022-09-14T11:54:11.308Z,60.74
2022-09-14T11:56:39.424Z,59.85
2022-09-14T11:59:07.546Z,58.28
2022-09-14T12:01:39.557Z,59.26
2022-09-14T12:04:10.141Z,57.96
2022-09-14T12:06:37.413Z,57.94
2022-09-14T12:09:24.505Z,56.71
2022-09-14T12:11:53.691Z,59.42
2022-09-14T12:14:31.190Z,57.45
2022-09-14T12:17:38.356Z,57.51
2022-09-14T12:20:30.514Z,55.60
2022-09-14T12:23:16.965Z,55.63
2022-09-14T12:26:03.400Z,53.26
2022-09-14T12:28:37.364Z,55.74
2022-09-14T12:31:04.732Z,52.75
2022-09-14T12:33:32.319Z,53.47
2022-09-14T12:36:06.155Z,53.62
2022-09-14T12:38:42.468Z,54.32
2022-09-14T12:41:15.624Z,53.76
2022-09-14T12:43:47.171Z,55.96
2022-09-14T12:46:20.775Z,54.84
2022-09-14T12:48:48.436Z,53.75
2022-09-14T12:51:27.287Z,53.57
2022-09-14T12:53:59.394Z,53.99
2022-09-14T12:56:37.378Z,53.03
2022-09-14T12:59:10.157Z,51.46
2022-09-14T13:02:05.955Z,51.44
2022-09-14T13:04:36.141Z,51.58
2022-09-14T13:07:15.527Z,50.90
2022-09-14T13:10:02.762Z,51.66
2022-09-14T13:12:46.775Z,51.97
2022-09-14T13:15:36.535Z,51.29
2022-09-14T13:18:06.637Z,49.15
2022-09-14T13:20:35.516Z,51.69
2022-09-14T13:23:03.234Z,50.61
2022-09-14T13:25:35.758Z,51.91
2022-09-14T13:28:11.275Z,52.45
2022-09-14T13:30:39.068Z,51.34
2022-09-14T13:33:07.053Z,50.11
2022-09-14T13:35:55.082Z,50.12
2022-09-14T13:38:33.966Z,50.96
2022-09-14T13:41:27.793Z,50.92
2022-09-14T13:43:56.605Z,49.96
2022-09-14T13:46:25.502Z,50.18
2022-09-14T13:48:53.548Z,48.57
2022-09-14T13:51:27.869Z,48.28
2022-09-14T13:53:57.364Z,48.26
2022-09-14T13:56:30.896Z,49.15
2022-09-14T13:59:14.466Z,49.30
2022-09-14T14:02:00.936Z,48.78
2022-09-14T14:04:37.552Z,47.93
2022-09-14T14:07:14.103Z,49.31
2022-09-14T14:09:54.338Z,49.93
2022-09-14T14:12:25.367Z,49.48
2022-09-14T14:15:18.994Z,48.82
2022-09-14T14:17:46.359Z,49.98
2022-09-14T14:20:38.651Z,49.56
2022-09-14T14:23:06.015Z,48.80
2022-09-14T14:25:45.677Z,50.71
2022-09-14T14:28:28.058Z,50.15
2022-09-14T14:30:57.393Z,49.67
2022-09-14T14:33:25.007Z,49.44
2022-09-14T14:35:54.410Z,49.13
2022-09-14T14:38:23.708Z,48.64
2022-09-14T14:40:54.710Z,48.61
2022-09-14T14:43:25.269Z,48.85
2022-09-14T14:45:56.418Z,48.66
2022-09-14T14:48:24.918Z,48.32
2022-09-14T14:50:53.530Z,48.38
2022-09-14T14:53:22.502Z,48.25
2022-09-14T14:55:50.213Z,48.39
2022-09-14T14:58:22.374Z,48.78
2022-09-14T15:00:50.477Z,49.08
2022-09-14T15:03:19.379Z,49.50
2022-09-14T15:05:47.649Z,49.91
2022-09-14T15:08:17.172Z,49.20
2022-09-14T15:10:44.750Z,49.30
2022-09-14T15:13:12.586Z,49.96
2022-09-14T15:15:42.867Z,49.71
2022-09-14T15:18:10.395Z,49.81
2022-09-14T15:20:37.805Z,49.77
2022-09-14T15:23:05.928Z,50.55
2022-09-14T15:25:33.279Z,49.73
2022-09-14T15:28:02.174Z,51.11
2022-09-14T15:30:29.837Z,50.33
2022-09-14T15:32:57.152Z,50.54
2022-09-14T15:35:24.493Z,50.81
2022-09-14T15:37:52.064Z,50.75
2022-09-14T15:40:19.435Z,51.59
2022-09-14T15:42:46.976Z,51.33
2022-09-14T15:45:14.774Z,50.84
2022-09-14T15:47:42.505Z,50.46
2022-09-14T15:50:11.055Z,51.41
2022-09-14T15:52:39.015Z,51.17
2022-09-14T15:55:08.449Z,50.92
2022-09-14T15:57:36.594Z,51.07
2022-09-14T16:00:08.777Z,53.49
2022-09-14T16:02:41.509Z,53.71
2022-09-14T16:05:09.550Z,50.95
2022-09-14T16:07:36.856Z,51.46
2022-09-14T16:10:04.508Z,52.80
2022-09-14T16:12:32.135Z,52.45
2022-09-14T16:14:59.925Z,53.00
2022-09-14T16:17:27.219Z,52.87
2022-09-14T16:19:54.808Z,53.93
2022-09-14T16:22:22.305Z,53.59
2022-09-14T16:24:50.081Z,52.38
2022-09-14T16:27:17.723Z,53.13
2022-09-14T16:29:45.068Z,54.76
2022-09-14T16:32:12.385Z,56.13
2022-09-14T16:34:40.008Z,54.35
2022-09-14T16:37:07.417Z,54.43
2022-09-14T16:39:35.083Z,54.56
2022-09-14T16:42:02.699Z,55.10
2022-09-14T16:44:30.233Z,53.93
2022-09-14T16:46:58.512Z,54.25
2022-09-14T16:49:28.104Z,55.77
2022-09-14T16:51:56.903Z,56.14
2022-09-14T16:54:25.630Z,55.78
2022-09-14T16:56:58.066Z,55.37
2022-09-14T16:59:26.301Z,55.43
2022-09-14T17:01:55.289Z,56.08
2022-09-14T17:04:23.999Z,56.62
2022-09-14T17:06:52.382Z,57.84
2022-09-14T17:09:23.288Z,57.81
2022-09-14T17:11:52.448Z,57.45
2022-09-14T17:14:25.668Z,57.29
2022-09-14T17:16:53.298Z,57.07
2022-09-14T17:19:21.272Z,57.61
2022-09-14T17:21:49.214Z,57.39
2022-09-14T17:24:18.887Z,58.11
2022-09-14T17:26:47.162Z,58.67
2022-09-14T17:29:15.379Z,59.54
2022-09-14T17:31:44.004Z,59.57
2022-09-14T17:34:13.770Z,58.33
2022-09-14T17:36:41.246Z,58.96
2022-09-14T17:39:12.228Z,58.93
2022-09-14T17:41:41.216Z,60.43
2022-09-14T17:44:11.374Z,61.30
2022-09-14T17:46:48.284Z,62.03
2022-09-14T17:49:18.947Z,63.41
2022-09-14T17:51:46.332Z,63.65
2022-09-14T17:54:13.936Z,62.44
2022-09-14T17:56:41.751Z,61.59
2022-09-14T17:59:17.839Z,61.51
2022-09-14T18:01:45.435Z,61.13
2022-09-14T18:04:14.756Z,62.30
2022-09-14T18:06:44.540Z,60.86
2022-09-14T18:09:17.523Z,61.00
2022-09-14T18:11:45.821Z,61.21
2022-09-14T18:14:14.733Z,61.96
2022-09-14T18:16:43.050Z,62.08
2022-09-14T18:19:10.859Z,63.88
2022-09-14T18:21:38.614Z,62.90
2022-09-14T18:24:10.411Z,64.55
2022-09-14T18:26:41.335Z,66.03
2022-09-14T18:29:11.111Z,69.92
2022-09-14T18:31:39.078Z,68.88
2022-09-14T18:34:08.651Z,67.25
2022-09-14T18:36:36.509Z,64.76
2022-09-14T18:39:04.267Z,64.52
2022-09-14T18:41:34.294Z,65.10
2022-09-14T18:44:02.491Z,65.40
2022-09-14T18:46:30.559Z,64.13
2022-09-14T18:49:00.037Z,63.93
2022-09-14T18:51:28.818Z,65.61
2022-09-14T18:54:09.727Z,64.77
2022-09-14T18:56:38.531Z,65.59
2022-09-14T18:59:08.857Z,66.59
2022-09-14T19:01:37.299Z,67.98
2022-09-14T19:04:06.870Z,67.17
2022-09-14T19:06:35.896Z,67.72
2022-09-14T19:09:05.123Z,66.60
2022-09-14T19:11:33.529Z,66.36
2022-09-14T19:14:03.875Z,71.31
2022-09-14T19:16:32.935Z,68.88
2022-09-14T19:19:00.982Z,66.70
2022-09-14T19:21:31.530Z,66.85
2022-09-14T19:24:08.039Z,66.57
2022-09-14T19:26:45.407Z,64.79
2022-09-14T19:29:15.202Z,66.05
2022-09-14T19:31:43.159Z,67.83
2022-09-14T19:34:11.835Z,67.54
2022-09-14T19:36:39.627Z,66.91
2022-09-14T19:39:11.549Z,66.55
2022-09-14T19:41:39.605Z,68.26
2022-09-14T19:44:08.214Z,67.74
2022-09-14T19:46:39.600Z,69.54
2022-09-14T19:49:14.264Z,69.79
2022-09-14T19:51:43.986Z,70.38
2022-09-14T19:54:12.370Z,70.22
2022-09-14T19:56:40.389Z,73.79
2022-09-14T19:59:08.854Z,71.56
2022-09-14T20:01:38.257Z,72.12
2022-09-14T20:04:07.479Z,72.63
2022-09-14T20:06:37.183Z,74.38
2022-09-14T20:09:14.706Z,72.14
2022-09-14T20:11:43.905Z,71.17
2022-09-14T20:14:13.889Z,68.70
2022-09-14T20:16:44.555Z,68.57
2022-09-14T20:19:20.777Z,67.88
2022-09-14T20:21:51.029Z,70.54
2022-09-14T20:24:20.707Z,69.33
2022-09-14T20:26:50.075Z,70.97
2022-09-14T20:29:18.609Z,70.06
2022-09-14T20:31:46.741Z,70.70
2022-09-14T20:34:16.367Z,70.91
2022-09-14T20:36:43.896Z,70.04
2022-09-14T20:39:11.252Z,72.58
2022-09-14T20:41:39.590Z,71.82
2022-09-14T20:44:07.192Z,72.27
2022-09-14T20:46:38.560Z,72.16
2022-09-14T20:49:13.376Z,71.31
2022-09-14T20:51:41.482Z,71.30
2022-09-14T20:54:12.229Z,73.01
2022-09-14T20:56:39.899Z,75.80
2022-09-14T20:59:09.984Z,73.57
2022-09-14T21:01:38.943Z,76.53
2022-09-14T21:04:15.413Z,73.61
2022-09-14T21:06:48.628Z,74.74
2022-09-14T21:09:18.108Z,74.14
2022-09-14T21:11:46.539Z,76.27
2022-09-14T21:14:15.671Z,72.37
2022-09-14T21:16:46.031Z,70.59
2022-09-14T21:19:17.893Z,70.58
2022-09-14T21:21:45.499Z,69.54
2022-09-14T21:24:13.619Z,69.50
2022-09-14T21:26:43.021Z,68.61
2022-09-14T21:29:14.140Z,68.97
2022-09-14T21:31:41.958Z,68.21
2022-09-14T21:34:10.759Z,68.87
2022-09-14T21:36:41.437Z,68.97
2022-09-14T21:39:12.859Z,69.06
2022-09-14T21:41:41.441Z,70.01
2022-09-14T21:44:09.222Z,72.08
2022-09-14T21:46:36.709Z,72.63
2022-09-14T21:49:04.331Z,73.84
2022-09-14T21:51:34.447Z,73.29
2022-09-14T21:54:05.047Z,79.21
2022-09-14T21:56:34.518Z,76.57
2022-09-14T21:59:05.537Z,73.22
2022-09-14T22:01:33.218Z,70.06
2022-09-14T22:04:01.008Z,68.78
2022-09-14T22:06:29.839Z,68.53
2022-09-14T22:08:59.880Z,71.28
2022-09-14T22:11:32.715Z,72.00
2022-09-14T22:14:02.871Z,72.21
2022-09-14T22:16:33.479Z,72.63
2022-09-14T22:19:04.217Z,70.41
2022-09-14T22:21:35.708Z,69.00
2022-09-14T22:24:06.183Z,71.02
2022-09-14T22:26:34.461Z,70.52
2022-09-14T22:29:01.860Z,69.14
2022-09-14T22:31:29.774Z,69.45
2022-09-14T22:33:58.145Z,69.79
2022-09-14T22:36:26.222Z,69.34
2022-09-14T22:38:57.748Z,67.60
2022-09-14T22:41:26.398Z,67.56
2022-09-14T22:43:54.324Z,67.24
2022-09-14T22:46:22.476Z,68.22
2022-09-14T22:48:50.960Z,67.48
2022-09-14T22:51:21.327Z,67.32
2022-09-14T22:53:48.894Z,66.80
2022-09-14T22:56:19.501Z,67.37
2022-09-14T22:58:47.772Z,66.76
2022-09-14T23:01:29.975Z,66.64
2022-09-14T23:03:59.961Z,67.01
2022-09-14T23:06:29.739Z,66.67
2022-09-14T23:08:57.680Z,67.02
2022-09-14T23:11:25.325Z,66.55
2022-09-14T23:13:53.909Z,66.28
2022-09-14T23:16:25.996Z,66.12
2022-09-14T23:18:57.247Z,65.55
2022-09-14T23:21:24.852Z,66.23
2022-09-14T23:23:55.746Z,65.56
2022-09-14T23:26:23.806Z,64.93
2022-09-14T23:29:05.120Z,65.00
2022-09-14T23:31:33.093Z,66.35
2022-09-14T23:34:01.742Z,67.25
2022-09-14T23:36:29.577Z,69.67
2022-09-14T23:38:57.239Z,69.93
2022-09-14T23:41:25.944Z,67.91
2022-09-14T23:43:53.274Z,66.21
2022-09-14T23:46:21.662Z,67.04
2022-09-14T23:48:49.538Z,66.80
2022-09-14T23:51:17.413Z,65.15
2022-09-14T23:53:45.212Z,66.37
2022-09-14T23:56:12.839Z,67.44
2022-09-14T23:58:42.008Z,66.24
